createdAt,value
2022-10-28T00:00:13.345Z,2.97
2022-10-28T00:02:40.211Z,2.80
2022-10-28T00:05:07.399Z,2.71
2022-10-28T00:07:34.251Z,2.65
2022-10-28T00:10:01.085Z,2.90
2022-10-28T00:12:28.031Z,2.71
2022-10-28T00:14:54.853Z,2.80
2022-10-28T00:17:21.706Z,2.93
2022-10-28T00:19:48.488Z,2.85
2022-10-28T00:22:15.284Z,2.90
2022-10-28T00:24:42.150Z,2.77
2022-10-28T00:27:08.974Z,2.83
2022-10-28T00:29:35.765Z,2.81
2022-10-28T00:32:02.687Z,2.86
2022-10-28T00:34:29.571Z,2.86
2022-10-28T00:36:56.380Z,2.79
2022-10-28T00:39:25.741Z,2.86
2022-10-28T00:42:00.678Z,2.81
2022-10-28T00:44:40.015Z,2.77
2022-10-28T00:47:36.137Z,2.64
2022-10-28T00:50:14.182Z,2.76
2022-10-28T00:52:43.966Z,2.96
2022-10-28T00:55:12.643Z,2.89
2022-10-28T00:57:42.595Z,2.92
2022-10-28T01:00:10.058Z,2.85
2022-10-28T01:02:47.757Z,3.05
2022-10-28T01:05:19.128Z,3.03
2022-10-28T01:07:46.114Z,2.90
2022-10-28T01:10:14.951Z,2.81
2022-10-28T01:13:04.847Z,3.02
2022-10-28T01:15:45.422Z,3.04
2022-10-28T01:18:14.748Z,3.08
2022-10-28T01:20:56.666Z,2.98
2022-10-28T01:23:52.631Z,2.94
2022-10-28T01:26:47.223Z,2.95
2022-10-28T01:29:38.875Z,3.01
2022-10-28T01:32:23.467Z,2.88
2022-10-28T01:35:08.695Z,3.01
2022-10-28T01:37:47.491Z,2.89
2022-10-28T01:40:33.816Z,2.96
2022-10-28T01:43:11.034Z,2.87
2022-10-28T01:45:52.354Z,2.80
2022-10-28T01:48:26.301Z,2.78
2022-10-28T01:51:11.315Z,2.67
2022-10-28T01:53:40.232Z,2.81
2022-10-28T01:56:12.312Z,2.78
2022-10-28T01:58:41.539Z,2.59
2022-10-28T02:01:10.492Z,2.73
2022-10-28T02:03:37.430Z,2.75
2022-10-28T02:06:14.382Z,2.65
2022-10-28T02:08:43.846Z,2.76
2022-10-28T02:11:22.634Z,2.87
2022-10-28T02:14:07.171Z,2.87
2022-10-28T02:16:46.996Z,3.00
2022-10-28T02:19:43.096Z,2.54
2022-10-28T02:22:15.971Z,2.49
2022-10-28T02:24:57.022Z,2.62
2022-10-28T02:27:46.873Z,2.60
2022-10-28T02:30:25.553Z,2.58
2022-10-28T02:32:59.432Z,2.51
2022-10-28T02:35:41.378Z,2.52
2022-10-28T02:38:14.340Z,2.81
2022-10-28T02:40:44.151Z,2.70
2022-10-28T02:43:13.980Z,2.55
2022-10-28T02:45:48.599Z,2.42
2022-10-28T02:48:27.493Z,2.52
2022-10-28T02:51:01.352Z,2.67
2022-10-28T02:53:38.848Z,2.56
2022-10-28T02:56:08.375Z,2.40
2022-10-28T02:58:39.884Z,2.54
2022-10-28T03:01:07.341Z,2.52
2022-10-28T03:03:34.275Z,2.51
2022-10-28T03:06:01.252Z,2.43
2022-10-28T03:08:28.008Z,2.47
2022-10-28T03:10:54.928Z,2.43
2022-10-28T03:13:21.732Z,2.57
2022-10-28T03:15:48.625Z,2.39
2022-10-28T03:18:15.399Z,2.64
2022-10-28T03:20:42.363Z,2.29
2022-10-28T03:23:09.146Z,2.55
2022-10-28T03:25:36.034Z,2.57
2022-10-28T03:28:02.843Z,2.77
2022-10-28T03:30:29.668Z,2.81
2022-10-28T03:32:56.810Z,2.45
2022-10-28T03:35:23.923Z,2.72
2022-10-28T03:37:50.715Z,2.84
2022-10-28T03:40:17.672Z,2.86
2022-10-28T03:42:44.471Z,2.64
2022-10-28T03:45:11.460Z,2.58
2022-10-28T03:47:38.220Z,2.69
2022-10-28T03:50:05.427Z,2.52
2022-10-28T03:52:32.436Z,2.42
2022-10-28T03:54:59.265Z,2.60
2022-10-28T03:57:26.081Z,2.78
2022-10-28T03:59:52.913Z,2.63
2022-10-28T04:02:19.762Z,2.72
2022-10-28T04:04:46.802Z,2.67
2022-10-28T04:07:13.642Z,2.75
2022-10-28T04:09:42.641Z,2.82
2022-10-28T04:12:11.339Z,2.86
2022-10-28T04:14:38.189Z,2.89
2022-10-28T04:17:04.984Z,2.95
2022-10-28T04:19:31.847Z,2.70
2022-10-28T04:21:59.262Z,2.73
2022-10-28T04:24:26.194Z,2.65
2022-10-28T04:26:52.985Z,2.68
2022-10-28T04:29:19.871Z,2.73
2022-10-28T04:31:48.717Z,2.73
2022-10-28T04:34:18.363Z,2.44
2022-10-28T04:36:45.161Z,2.77
2022-10-28T04:39:12.017Z,2.83
2022-10-28T04:41:38.915Z,2.66
2022-10-28T04:44:05.832Z,2.76
2022-10-28T04:46:32.645Z,2.93
2022-10-28T04:48:59.589Z,2.68
2022-10-28T04:51:26.392Z,2.65
2022-10-28T04:53:53.386Z,2.66
2022-10-28T04:56:20.682Z,2.69
2022-10-28T04:58:47.961Z,2.79
2022-10-28T05:01:15.626Z,2.94
2022-10-28T05:03:42.697Z,2.94
2022-10-28T05:06:11.023Z,2.82
2022-10-28T05:08:39.482Z,2.85
2022-10-28T05:11:06.314Z,2.63
2022-10-28T05:13:33.221Z,2.85
2022-10-28T05:16:00.011Z,3.06
2022-10-28T05:18:26.938Z,3.20
2022-10-28T05:20:53.770Z,3.19
2022-10-28T05:23:27.139Z,3.14
2022-10-28T05:25:56.873Z,3.39
2022-10-28T05:28:23.772Z,3.23
2022-10-28T05:30:50.716Z,3.44
2022-10-28T05:33:17.528Z,3.54
2022-10-28T05:35:44.403Z,3.45
2022-10-28T05:38:11.286Z,3.18
2022-10-28T05:40:38.321Z,3.45
2022-10-28T05:43:09.697Z,3.31
2022-10-28T05:45:37.092Z,3.47
2022-10-28T05:48:04.146Z,3.41
2022-10-28T05:50:31.120Z,3.40
2022-10-28T05:52:58.079Z,3.28
2022-10-28T05:55:27.545Z,3.12
2022-10-28T05:57:54.950Z,3.35
2022-10-28T06:00:24.586Z,3.27
2022-10-28T06:02:51.821Z,3.40
2022-10-28T06:05:18.856Z,3.20
2022-10-28T06:07:45.645Z,3.09
2022-10-28T06:10:12.889Z,3.01
2022-10-28T06:12:38.503Z,2.97
2022-10-28T06:15:06.011Z,3.30
2022-10-28T06:17:32.862Z,3.49
2022-10-28T06:19:59.656Z,3.42
2022-10-28T06:22:26.509Z,3.73
2022-10-28T06:24:53.380Z,3.59
2022-10-28T06:27:20.237Z,3.61
2022-10-28T06:29:47.061Z,3.68
2022-10-28T06:32:13.959Z,3.40
2022-10-28T06:34:40.746Z,3.49
2022-10-28T06:37:07.575Z,3.35
2022-10-28T06:39:34.448Z,3.29
2022-10-28T06:42:01.257Z,3.38
2022-10-28T06:44:28.065Z,3.57
2022-10-28T06:46:56.383Z,3.34
2022-10-28T06:49:23.183Z,3.34
2022-10-28T06:51:50.157Z,3.07
2022-10-28T06:54:16.954Z,3.07
2022-10-28T06:56:43.770Z,3.39
2022-10-28T06:59:10.582Z,3.27
2022-10-28T07:01:37.536Z,3.31
2022-10-28T07:04:04.755Z,3.31
2022-10-28T07:06:31.618Z,3.23
2022-10-28T07:08:58.444Z,3.31
2022-10-28T07:11:25.275Z,3.61
2022-10-28T07:13:52.057Z,3.90
2022-10-28T07:16:18.858Z,3.96
2022-10-28T07:18:45.645Z,3.84
2022-10-28T07:21:12.432Z,3.92
2022-10-28T07:23:39.229Z,4.04
2022-10-28T07:26:06.110Z,4.01
2022-10-28T07:28:32.930Z,3.98
2022-10-28T07:31:03.120Z,4.19
2022-10-28T07:33:30.679Z,4.14
2022-10-28T07:35:57.707Z,3.69
2022-10-28T07:38:24.569Z,4.01
2022-10-28T07:40:51.373Z,4.13
2022-10-28T07:43:18.147Z,4.13
2022-10-28T07:45:45.162Z,4.09
2022-10-28T07:48:12.026Z,3.92
2022-10-28T07:50:41.159Z,3.78
2022-10-28T07:53:08.257Z,4.10
2022-10-28T07:55:35.197Z,3.55
2022-10-28T07:58:01.981Z,3.60
2022-10-28T08:00:28.874Z,3.79
2022-10-28T08:02:55.770Z,4.02
2022-10-28T08:05:22.557Z,4.02
2022-10-28T08:07:49.621Z,4.07
2022-10-28T08:10:16.585Z,4.23
2022-10-28T08:12:43.380Z,3.93
2022-10-28T08:15:10.485Z,4.01
2022-10-28T08:17:37.451Z,4.09
2022-10-28T08:20:05.678Z,4.34
2022-10-28T08:22:32.494Z,4.34
2022-10-28T08:24:59.377Z,4.23
2022-10-28T08:27:26.180Z,4.32
2022-10-28T08:29:53.084Z,4.46
2022-10-28T08:32:19.890Z,4.15
2022-10-28T08:34:46.671Z,4.28
2022-10-28T08:37:13.832Z,3.99
2022-10-28T08:39:40.782Z,4.12
2022-10-28T08:42:32.384Z,4.84
2022-10-28T08:45:18.097Z,4.93
2022-10-28T08:47:47.829Z,5.02
2022-10-28T08:50:17.148Z,5.05
2022-10-28T08:53:19.230Z,4.63
2022-10-28T08:55:48.779Z,4.40
2022-10-28T08:58:41.657Z,4.33
2022-10-28T09:01:18.728Z,3.87
2022-10-28T09:03:50.515Z,4.37
2022-10-28T09:06:17.420Z,4.45
2022-10-28T09:08:47.637Z,4.56
2022-10-28T09:11:30.635Z,4.54
2022-10-28T09:14:24.875Z,4.45
2022-10-28T09:16:54.321Z,4.54
2022-10-28T09:20:05.859Z,4.85
2022-10-28T09:22:58.280Z,5.06
2022-10-28T09:25:34.114Z,5.13
2022-10-28T09:28:04.096Z,4.91
2022-10-28T09:30:52.400Z,4.63
2022-10-28T09:33:37.808Z,4.30
2022-10-28T09:36:06.343Z,4.10
2022-10-28T09:38:36.498Z,4.61
2022-10-28T09:41:06.470Z,4.89
2022-10-28T09:43:36.044Z,4.51
2022-10-28T09:46:10.362Z,4.42
2022-10-28T09:48:41.878Z,4.68
2022-10-28T09:51:22.788Z,4.37
2022-10-28T09:53:58.025Z,4.36
2022-10-28T09:56:26.831Z,4.29
2022-10-28T09:58:55.339Z,4.27
2022-10-28T10:01:22.537Z,4.15
2022-10-28T10:03:51.078Z,4.57
2022-10-28T10:06:27.648Z,4.80
2022-10-28T10:08:58.100Z,4.82
2022-10-28T10:11:34.679Z,4.99
2022-10-28T10:14:09.393Z,4.70
2022-10-28T10:16:47.768Z,4.47
2022-10-28T10:19:14.849Z,4.59
2022-10-28T10:21:59.422Z,4.93
2022-10-28T10:24:30.689Z,4.79
2022-10-28T10:27:01.275Z,4.45
2022-10-28T10:29:29.433Z,4.60
2022-10-28T10:32:13.599Z,4.74
2022-10-28T10:34:45.692Z,4.46
2022-10-28T10:37:22.854Z,4.23
2022-10-28T10:40:22.409Z,4.61
2022-10-28T10:43:09.468Z,4.37
2022-10-28T10:45:37.369Z,4.63
2022-10-28T10:48:12.384Z,4.59
2022-10-28T10:50:40.428Z,4.44
2022-10-28T10:53:16.802Z,4.03
2022-10-28T10:55:50.776Z,4.40
2022-10-28T10:58:21.412Z,4.19
2022-10-28T11:00:52.361Z,4.14
2022-10-28T11:03:30.819Z,4.30
2022-10-28T11:06:21.928Z,4.36
2022-10-28T11:08:47.161Z,4.24
2022-10-28T11:11:18.997Z,4.10
2022-10-28T11:13:47.023Z,4.04
2022-10-28T11:16:24.517Z,4.31
2022-10-28T11:18:52.960Z,4.60
2022-10-28T11:21:40.718Z,4.64
2022-10-28T11:24:17.390Z,4.60
2022-10-28T11:27:07.140Z,4.60
2022-10-28T11:29:34.531Z,4.61
2022-10-28T11:33:01.330Z,4.78
2022-10-28T11:36:44.638Z,4.97
2022-10-28T11:39:35.215Z,4.66
2022-10-28T11:42:23.516Z,4.71
2022-10-28T11:45:10.517Z,4.93
2022-10-28T11:47:49.846Z,5.06
2022-10-28T11:50:26.738Z,4.97
2022-10-28T11:53:02.523Z,5.21
2022-10-28T11:55:42.659Z,5.15
2022-10-28T11:58:23.884Z,5.29
2022-10-28T12:00:59.753Z,5.17
2022-10-28T12:03:39.296Z,5.09
2022-10-28T12:06:17.290Z,5.28
2022-10-28T12:12:11.813Z,5.38
2022-10-28T12:14:47.532Z,5.11
2022-10-28T12:17:24.747Z,5.08
2022-10-28T12:19:59.993Z,5.06
2022-10-28T12:22:46.247Z,4.71
2022-10-28T12:25:19.388Z,4.93
2022-10-28T12:27:51.252Z,4.93
2022-10-28T12:30:26.346Z,5.11
2022-10-28T12:33:07.658Z,5.39
2022-10-28T12:35:39.362Z,5.23
2022-10-28T12:38:40.540Z,5.37
2022-10-28T12:41:23.552Z,4.78
2022-10-28T12:44:03.640Z,4.75
2022-10-28T12:46:46.305Z,4.97
2022-10-28T12:49:31.640Z,4.96
2022-10-28T12:52:08.699Z,5.08
2022-10-28T12:54:53.558Z,5.12
2022-10-28T12:57:23.271Z,5.23
2022-10-28T13:00:06.473Z,5.12
2022-10-28T13:02:41.744Z,4.90
2022-10-28T13:05:20.781Z,5.10
2022-10-28T13:08:14.628Z,5.19
2022-10-28T13:11:18.520Z,5.12
2022-10-28T13:13:55.905Z,5.28
2022-10-28T13:16:28.610Z,5.09
2022-10-28T13:19:20.799Z,5.17
2022-10-28T13:21:53.622Z,4.57
2022-10-28T13:24:30.836Z,4.70
2022-10-28T13:27:01.842Z,4.97
2022-10-28T13:29:33.287Z,5.06
2022-10-28T13:32:01.015Z,5.02
2022-10-28T13:34:35.606Z,5.04
2022-10-28T13:37:05.499Z,5.07
2022-10-28T13:39:45.181Z,4.96
2022-10-28T13:42:15.085Z,5.19
2022-10-28T13:44:51.078Z,5.13
2022-10-28T13:47:23.845Z,5.13
2022-10-28T13:50:05.971Z,5.24
2022-10-28T13:52:44.382Z,5.33
2022-10-28T13:55:25.987Z,5.35
2022-10-28T13:58:21.587Z,5.38
2022-10-28T14:00:53.205Z,5.34
2022-10-28T14:03:28.581Z,5.28
2022-10-28T14:06:00.839Z,5.00
2022-10-28T14:08:34.525Z,5.22
2022-10-28T14:11:30.657Z,5.37
2022-10-28T14:14:09.189Z,5.49
2022-10-28T14:16:43.742Z,5.49
2022-10-28T14:19:10.629Z,5.57
2022-10-28T14:21:48.401Z,5.42
2022-10-28T14:24:41.776Z,5.36
2022-10-28T14:27:08.869Z,5.05
2022-10-28T14:30:08.580Z,5.09
2022-10-28T14:32:35.500Z,5.03
2022-10-28T14:35:12.980Z,5.14
2022-10-28T14:38:14.495Z,5.16
2022-10-28T14:40:50.642Z,5.26
2022-10-28T14:43:54.800Z,4.98
2022-10-28T14:47:06.614Z,5.35
2022-10-28T14:49:36.483Z,5.25
2022-10-28T14:52:07.912Z,5.50
2022-10-28T14:54:42.577Z,5.29
2022-10-28T14:57:12.642Z,5.30
2022-10-28T14:59:45.042Z,5.33
2022-10-28T15:02:19.106Z,5.29
2022-10-28T15:04:48.679Z,5.34
2022-10-28T15:07:20.712Z,5.34
2022-10-28T15:09:49.656Z,5.35
2022-10-28T15:12:19.798Z,5.38
2022-10-28T15:14:49.157Z,5.42
2022-10-28T15:17:21.972Z,5.43
2022-10-28T15:19:51.952Z,5.51
2022-10-28T15:22:20.342Z,5.53
2022-10-28T15:25:10.945Z,5.35
2022-10-28T15:27:44.673Z,5.47
2022-10-28T15:30:23.761Z,5.53
2022-10-28T15:32:52.605Z,5.58
2022-10-28T15:35:29.882Z,5.58
2022-10-28T15:38:02.910Z,5.64
2022-10-28T15:40:32.758Z,5.73
2022-10-28T15:43:17.082Z,5.80
2022-10-28T15:45:48.654Z,5.66
2022-10-28T15:48:23.728Z,5.65
2022-10-28T15:51:12.391Z,5.76
2022-10-28T15:53:41.151Z,5.66
2022-10-28T15:56:15.759Z,5.69
2022-10-28T15:58:46.051Z,5.77
2022-10-28T16:01:51.629Z,5.84
2022-10-28T16:04:18.624Z,5.78
2022-10-28T16:06:46.398Z,5.54
2022-10-28T16:09:26.237Z,5.54
2022-10-28T16:11:59.147Z,5.52
2022-10-28T16:14:37.798Z,5.36
2022-10-28T16:17:29.778Z,5.58
2022-10-28T16:20:01.348Z,5.59
2022-10-28T16:22:34.618Z,5.58
2022-10-28T16:25:01.584Z,5.58
2022-10-28T16:27:31.814Z,5.36
2022-10-28T16:30:01.565Z,5.25
2022-10-28T16:32:35.382Z,5.28
2022-10-28T16:35:03.918Z,5.42
2022-10-28T16:37:34.540Z,5.33
2022-10-28T16:40:02.059Z,5.48
2022-10-28T16:42:29.293Z,5.56
2022-10-28T16:44:57.868Z,5.59
2022-10-28T16:47:25.712Z,5.66
2022-10-28T16:49:57.228Z,5.58
2022-10-28T16:52:30.666Z,5.56
2022-10-28T16:54:58.646Z,5.52
2022-10-28T16:57:26.429Z,5.42
2022-10-28T16:59:54.228Z,5.43
2022-10-28T17:02:27.734Z,5.42
2022-10-28T17:04:55.754Z,5.43
2022-10-28T17:07:22.761Z,5.56
2022-10-28T17:09:49.767Z,5.59
2022-10-28T17:12:19.505Z,5.62
2022-10-28T17:14:46.667Z,5.54
2022-10-28T17:17:14.446Z,5.69
2022-10-28T17:19:41.684Z,5.61
2022-10-28T17:22:10.445Z,5.58
2022-10-28T17:24:37.905Z,5.63
2022-10-28T17:27:06.932Z,5.50
2022-10-28T17:29:33.810Z,5.53
2022-10-28T17:32:00.679Z,5.64
2022-10-28T17:34:28.167Z,5.62
2022-10-28T17:36:55.213Z,5.62
2022-10-28T17:39:26.144Z,5.42
2022-10-28T17:41:54.118Z,5.59
2022-10-28T17:44:21.115Z,5.73
2022-10-28T17:46:49.119Z,5.72
2022-10-28T17:49:21.735Z,5.77
2022-10-28T17:51:55.516Z,5.68
2022-10-28T17:56:54.444Z,5.84
2022-10-28T17:59:21.419Z,5.81
2022-10-28T18:01:48.437Z,5.85
2022-10-28T18:04:15.471Z,5.85
2022-10-28T18:06:43.694Z,5.73
2022-10-28T18:09:12.055Z,5.80
2022-10-28T18:11:39.479Z,5.90
2022-10-28T18:14:08.793Z,6.00
2022-10-28T18:16:37.023Z,5.87
2022-10-28T18:19:06.623Z,5.82
2022-10-28T18:21:34.128Z,5.91
2022-10-28T18:24:03.043Z,5.96
2022-10-28T18:26:35.377Z,5.74
2022-10-28T18:29:03.382Z,5.75
2022-10-28T18:31:34.699Z,5.64
2022-10-28T18:34:02.481Z,5.77
2022-10-28T18:36:31.654Z,5.91
2022-10-28T18:39:08.005Z,5.96
2022-10-28T18:41:39.025Z,5.98
2022-10-28T18:44:06.112Z,6.04
2022-10-28T18:46:35.466Z,5.94
2022-10-28T18:49:02.641Z,5.95
2022-10-28T18:51:30.106Z,5.85
2022-10-28T18:54:00.621Z,5.83
2022-10-28T18:56:28.696Z,5.78
2022-10-28T18:58:56.547Z,5.78
2022-10-28T19:01:26.740Z,5.73
2022-10-28T19:04:01.618Z,5.60
2022-10-28T19:06:33.173Z,5.64
2022-10-28T19:09:03.453Z,5.68
2022-10-28T19:11:31.631Z,5.55
2022-10-28T19:14:05.020Z,5.54
2022-10-28T19:16:34.002Z,5.57
2022-10-28T19:19:02.613Z,5.54
2022-10-28T19:21:30.173Z,5.47
2022-10-28T19:23:57.127Z,5.52
2022-10-28T19:26:24.595Z,5.61
2022-10-28T19:28:52.241Z,5.56
2022-10-28T19:31:24.669Z,5.40
2022-10-28T19:33:53.929Z,5.28
2022-10-28T19:36:23.741Z,5.17
2022-10-28T19:38:51.977Z,5.08
2022-10-28T19:41:20.705Z,5.11
2022-10-28T19:43:48.273Z,4.93
2022-10-28T19:46:17.836Z,5.04
2022-10-28T19:48:50.163Z,4.96
2022-10-28T19:51:28.974Z,4.83
2022-10-28T19:54:01.110Z,4.91
2022-10-28T19:56:29.751Z,4.72
2022-10-28T19:58:59.831Z,4.81
2022-10-28T20:01:29.517Z,4.77
2022-10-28T20:03:57.506Z,4.69
2022-10-28T20:06:26.578Z,4.74
2022-10-28T20:08:53.862Z,4.59
2022-10-28T20:11:26.141Z,4.70
2022-10-28T20:13:55.141Z,4.73
2022-10-28T20:16:23.110Z,4.64
2022-10-28T20:18:50.146Z,4.80
2022-10-28T20:21:19.299Z,4.66
2022-10-28T20:26:34.243Z,4.74
2022-10-28T20:29:01.384Z,4.66
2022-10-28T20:31:30.654Z,4.64
2022-10-28T20:34:02.773Z,4.70
2022-10-28T20:36:32.055Z,4.61
2022-10-28T20:39:14.211Z,4.56
2022-10-28T20:41:42.688Z,4.70
2022-10-28T20:44:10.184Z,4.60
2022-10-28T20:46:40.674Z,4.48
2022-10-28T20:49:09.013Z,4.31
2022-10-28T20:51:45.774Z,4.41
2022-10-28T20:54:12.815Z,4.39
2022-10-28T20:56:39.851Z,4.44
2022-10-28T20:59:06.821Z,4.52
2022-10-28T21:01:36.779Z,4.48
2022-10-28T21:04:06.903Z,4.45
2022-10-28T21:06:34.827Z,4.49
2022-10-28T21:09:01.669Z,4.39
2022-10-28T21:11:28.901Z,4.39
2022-10-28T21:13:58.309Z,4.36
2022-10-28T21:16:26.793Z,4.26
2022-10-28T21:18:53.823Z,4.28
2022-10-28T21:21:22.437Z,4.27
2022-10-28T21:23:49.318Z,4.11
2022-10-28T21:26:16.745Z,4.03
2022-10-28T21:28:43.697Z,3.72
2022-10-28T21:31:15.220Z,4.08
2022-10-28T21:33:43.313Z,3.90
2022-10-28T21:36:13.831Z,4.06
2022-10-28T21:38:41.098Z,3.93
2022-10-28T21:41:16.244Z,4.09
2022-10-28T21:43:46.005Z,3.96
2022-10-28T21:46:13.752Z,3.97
2022-10-28T21:48:40.906Z,4.14
2022-10-28T21:51:13.574Z,4.02
2022-10-28T21:53:43.059Z,4.07
2022-10-28T21:56:17.670Z,4.05
2022-10-28T21:58:46.877Z,3.99
2022-10-28T22:01:19.638Z,4.00
2022-10-28T22:03:46.904Z,4.07
2022-10-28T22:06:14.622Z,4.00
2022-10-28T22:08:41.942Z,4.05
2022-10-28T22:11:13.447Z,4.15
2022-10-28T22:13:40.576Z,4.37
2022-10-28T22:16:12.073Z,4.37
2022-10-28T22:18:39.236Z,4.22
2022-10-28T22:21:06.364Z,4.39
2022-10-28T22:23:33.700Z,4.49
2022-10-28T22:26:06.168Z,4.47
2022-10-28T22:28:33.096Z,4.27
2022-10-28T22:31:06.041Z,4.30
2022-10-28T22:33:33.738Z,4.41
2022-10-28T22:36:02.507Z,4.35
2022-10-28T22:38:29.694Z,4.35
2022-10-28T22:41:07.221Z,4.28
2022-10-28T22:43:35.046Z,4.26
2022-10-28T22:46:02.299Z,4.35
2022-10-28T22:48:29.754Z,4.44
2022-10-28T22:50:56.945Z,4.37
2022-10-28T22:53:24.294Z,4.37
2022-10-28T22:55:53.322Z,4.19
2022-10-28T22:58:20.482Z,4.20
2022-10-28T23:00:48.638Z,4.18
2022-10-28T23:03:15.865Z,4.13
2022-10-28T23:05:42.792Z,4.15
2022-10-28T23:08:14.786Z,4.25
2022-10-28T23:10:42.061Z,4.21
2022-10-28T23:13:12.379Z,4.14
2022-10-28T23:15:39.452Z,4.19
2022-10-28T23:18:06.605Z,4.27
2022-10-28T23:20:35.985Z,4.20
2022-10-28T23:23:03.276Z,4.20
2022-10-28T23:25:30.437Z,4.13
2022-10-28T23:28:00.677Z,4.15
2022-10-28T23:30:27.634Z,4.11
2022-10-28T23:32:57.170Z,4.22
2022-10-28T23:35:24.537Z,4.25
2022-10-28T23:37:51.310Z,4.22
2022-10-28T23:40:18.122Z,4.19
2022-10-28T23:42:44.930Z,4.15
2022-10-28T23:45:11.807Z,4.16
2022-10-28T23:47:38.908Z,4.28
2022-10-28T23:50:05.963Z,4.17
2022-10-28T23:52:32.756Z,4.07
2022-10-28T23:54:59.852Z,4.08
2022-10-28T23:57:27.490Z,3.96
2022-10-28T23:59:54.468Z,4.07
